sensor_id;sensor_type;location;lat;lon;timestamp;pressure;altitude;pressure_sealevel;temperature;humidity
13080;BME280;6606;49.154;9.280;2023-03-04T00:02:29;100282.78;;;-0.27;100.00
13080;BME280;6606;49.154;9.280;2023-03-04T00:05:11;100288.00;;;-0.28;100.00
13080;BME280;6606;49.154;9.280;2023-03-04T00:07:52;100295.78;;;-0.37;100.00
13080;BME280;6606;49.154;9.280;2023-03-04T00:10:34;100300.97;;;-0.37;100.00
13080;BME280;6606;49.154;9.280;2023-03-04T00:13:17;100298.38;;;-0.39;100.00
13080;BME280;6606;49.154;9.280;2023-03-04T00:16:00;100292.28;;;-0.42;100.00
13080;BME280;6606;49.154;9.280;2023-03-04T00:18:42;100297.47;;;-0.46;100.00
13080;BME280;6606;49.154;9.280;2023-03-04T00:21:24;100294.88;;;-0.47;100.00
13080;BME280;6606;49.154;9.280;2023-03-04T00:24:06;100286.22;;;-0.48;100.00
13080;BME280;6606;49.154;9.280;2023-03-04T00:26:48;100291.41;;;-0.48;100.00
13080;BME280;6606;49.154;9.280;2023-03-04T00:29:31;100294.03;;;-0.48;100.00
13080;BME280;6606;49.154;9.280;2023-03-04T00:32:12;100293.13;;;-0.50;100.00
13080;BME280;6606;49.154;9.280;2023-03-04T00:34:55;100296.59;;;-0.55;100.00
13080;BME280;6606;49.154;9.280;2023-03-04T00:37:37;100294.78;;;-0.69;100.00
13080;BME280;6606;49.154;9.280;2023-03-04T00:40:19;100299.06;;;-0.72;100.00
13080;BME280;6606;49.154;9.280;2023-03-04T00:43:01;100296.50;;;-0.74;100.00
13080;BME280;6606;49.154;9.280;2023-03-04T00:45:44;100293.00;;;-0.76;100.00
13080;BME280;6606;49.154;9.280;2023-03-04T00:48:27;100291.22;;;-0.77;100.00
13080;BME280;6606;49.154;9.280;2023-03-04T00:51:09;100290.34;;;-0.86;100.00
13080;BME280;6606;49.154;9.280;2023-03-04T00:53:51;100291.16;;;-0.91;100.00
13080;BME280;6606;49.154;9.280;2023-03-04T00:56:32;100283.34;;;-0.94;100.00
13080;BME280;6606;49.154;9.280;2023-03-04T00:59:14;100281.63;;;-0.89;100.00
13080;BME280;6606;49.154;9.280;2023-03-04T01:01:57;100279.06;;;-0.87;100.00
13080;BME280;6606;49.154;9.280;2023-03-04T01:04:42;100285.97;;;-0.88;100.00
13080;BME280;6606;49.154;9.280;2023-03-04T01:07:24;100279.88;;;-0.91;100.00
13080;BME280;6606;49.154;9.280;2023-03-04T01:10:07;100280.75;;;-0.95;100.00
13080;BME280;6606;49.154;9.280;2023-03-04T01:12:50;100278.97;;;-0.99;100.00
13080;BME280;6606;49.154;9.280;2023-03-04T01:15:31;100279.81;;;-1.02;100.00
13080;BME280;6606;49.154;9.280;2023-03-04T01:18:14;100274.59;;;-1.05;100.00
13080;BME280;6606;49.154;9.280;2023-03-04T01:20:56;100278.91;;;-1.07;100.00
13080;BME280;6606;49.154;9.280;2023-03-04T01:23:38;100279.78;;;-1.11;100.00
13080;BME280;6606;49.154;9.280;2023-03-04T01:26:21;100282.38;;;-1.11;100.00
13080;BME280;6606;49.154;9.280;2023-03-04T01:29:03;100284.97;;;-1.11;100.00
13080;BME280;6606;49.154;9.280;2023-03-04T01:31:45;100276.28;;;-1.13;100.00
13080;BME280;6606;49.154;9.280;2023-03-04T01:34:28;100280.59;;;-1.18;100.00
13080;BME280;6606;49.154;9.280;2023-03-04T01:37:11;100277.06;;;-1.23;100.00
13080;BME280;6606;49.154;9.280;2023-03-04T01:39:54;100277.03;;;-1.31;100.00
13080;BME280;6606;49.154;9.280;2023-03-04T01:42:35;100268.25;;;-1.41;100.00
13080;BME280;6606;49.154;9.280;2023-03-04T01:45:18;100274.34;;;-1.42;100.00
13080;BME280;6606;49.154;9.280;2023-03-04T01:48:01;100273.47;;;-1.42;100.00
13080;BME280;6606;49.154;9.280;2023-03-04T01:50:44;100275.16;;;-1.46;100.00
13080;BME280;6606;49.154;9.280;2023-03-04T01:53:26;100264.75;;;-1.49;100.00
13080;BME280;6606;49.154;9.280;2023-03-04T01:56:14;100267.31;;;-1.52;100.00
13080;BME280;6606;49.154;9.280;2023-03-04T01:59:10;100269.00;;;-1.57;100.00
13080;BME280;6606;49.154;9.280;2023-03-04T02:01:54;100275.00;;;-1.66;100.00
13080;BME280;6606;49.154;9.280;2023-03-04T02:04:36;100270.59;;;-1.74;100.00
13080;BME280;6606;49.154;9.280;2023-03-04T02:07:19;100265.34;;;-1.78;100.00
13080;BME280;6606;49.154;9.280;2023-03-04T02:10:02;100268.88;;;-1.72;100.00
13080;BME280;6606;49.154;9.280;2023-03-04T02:12:47;100258.47;;;-1.72;100.00
13080;BME280;6606;49.154;9.280;2023-03-04T02:15:29;100263.66;;;-1.77;100.00
13080;BME280;6606;49.154;9.280;2023-03-04T02:18:14;100265.34;;;-1.78;100.00
13080;BME280;6606;49.154;9.280;2023-03-04T02:21:03;100263.63;;;-1.79;100.00
13080;BME280;6606;49.154;9.280;2023-03-04T02:23:56;100256.63;;;-1.83;100.00
13080;BME280;6606;49.154;9.280;2023-03-04T02:26:41;100260.94;;;-1.86;100.00
13080;BME280;6606;49.154;9.280;2023-03-04T02:29:27;100263.56;;;-1.88;100.00
13080;BME280;6606;49.154;9.280;2023-03-04T02:32:13;100269.56;;;-1.92;100.00
13080;BME280;6606;49.154;9.280;2023-03-04T02:34:55;100259.97;;;-1.96;100.00
13080;BME280;6606;49.154;9.280;2023-03-04T02:37:37;100263.44;;;-1.97;100.00
13080;BME280;6606;49.154;9.280;2023-03-04T02:40:23;100257.38;;;-1.96;100.00
13080;BME280;6606;49.154;9.280;2023-03-04T02:43:10;100264.28;;;-2.01;100.00
13080;BME280;6606;49.154;9.280;2023-03-04T02:45:52;100260.78;;;-2.02;100.00
13080;BME280;6606;49.154;9.280;2023-03-04T02:48:34;100257.34;;;-2.01;100.00
13080;BME280;6606;49.154;9.280;2023-03-04T02:51:16;100257.31;;;-2.05;100.00
13080;BME280;6606;49.154;9.280;2023-03-04T02:53:58;100252.09;;;-2.05;100.00
13080;BME280;6606;49.154;9.280;2023-03-04T02:56:44;100250.34;;;-2.08;100.00
13080;BME280;6606;49.154;9.280;2023-03-04T02:59:27;100249.44;;;-2.13;100.00
13080;BME280;6606;49.154;9.280;2023-03-04T03:02:10;100257.25;;;-2.11;100.00
13080;BME280;6606;49.154;9.280;2023-03-04T03:04:52;100258.94;;;-2.13;100.00
13080;BME280;6606;49.154;9.280;2023-03-04T03:07:35;100261.53;;;-2.16;100.00
13080;BME280;6606;49.154;9.280;2023-03-04T03:10:18;100266.69;;;-2.19;100.00
13080;BME280;6606;49.154;9.280;2023-03-04T03:13:00;100257.16;;;-2.19;100.00
13080;BME280;6606;49.154;9.280;2023-03-04T03:15:43;100262.31;;;-2.21;100.00
13080;BME280;6606;49.154;9.280;2023-03-04T03:18:24;100270.06;;;-2.27;100.00
13080;BME280;6606;49.154;9.280;2023-03-04T03:21:06;100265.69;;;-2.28;100.00
13080;BME280;6606;49.154;9.280;2023-03-04T03:23:48;100269.06;;;-2.36;100.00
13080;BME280;6606;49.154;9.280;2023-03-04T03:26:30;100266.44;;;-2.39;100.00
13080;BME280;6606;49.154;9.280;2023-03-04T03:29:12;100269.91;;;-2.39;100.00
13080;BME280;6606;49.154;9.280;2023-03-04T03:31:55;100264.72;;;-2.39;100.00
13080;BME280;6606;49.154;9.280;2023-03-04T03:34:37;100259.50;;;-2.42;100.00
13080;BME280;6606;49.154;9.280;2023-03-04T03:37:18;100261.22;;;-2.42;100.00
13080;BME280;6606;49.154;9.280;2023-03-04T03:40:00;100260.34;;;-2.41;100.00
13080;BME280;6606;49.154;9.280;2023-03-04T03:42:42;100258.63;;;-2.42;100.00
13080;BME280;6606;49.154;9.280;2023-03-04T03:45:23;100258.56;;;-2.49;100.00
13080;BME280;6606;49.154;9.280;2023-03-04T03:48:07;100255.03;;;-2.52;100.00
13080;BME280;6606;49.154;9.280;2023-03-04T03:50:48;100253.28;;;-2.55;100.00
13080;BME280;6606;49.154;9.280;2023-03-04T03:53:30;100261.94;;;-2.56;100.00
13080;BME280;6606;49.154;9.280;2023-03-04T03:56:12;100257.56;;;-2.58;100.00
13080;BME280;6606;49.154;9.280;2023-03-04T03:58:53;100267.88;;;-2.64;100.00
13080;BME280;6606;49.154;9.280;2023-03-04T04:01:35;100266.97;;;-2.65;100.00
13080;BME280;6606;49.154;9.280;2023-03-04T04:04:18;100276.53;;;-2.62;100.00
13080;BME280;6606;49.154;9.280;2023-03-04T04:07:00;100279.97;;;-2.65;100.00
13080;BME280;6606;49.154;9.280;2023-03-04T04:09:42;100277.34;;;-2.67;100.00
13080;BME280;6606;49.154;9.280;2023-03-04T04:12:24;100287.75;;;-2.67;100.00
13080;BME280;6606;49.154;9.280;2023-03-04T04:15:08;100285.03;;;-2.73;100.00
13080;BME280;6606;49.154;9.280;2023-03-04T04:17:50;100276.44;;;-2.72;100.00
13080;BME280;6606;49.154;9.280;2023-03-04T04:20:34;100281.59;;;-2.73;100.00
13080;BME280;6606;49.154;9.280;2023-03-04T04:23:16;100287.63;;;-2.74;100.00
13080;BME280;6606;49.154;9.280;2023-03-04T04:25:58;100286.75;;;-2.75;100.00
13080;BME280;6606;49.154;9.280;2023-03-04T04:28:40;100293.66;;;-2.77;100.00
13080;BME280;6606;49.154;9.280;2023-03-04T04:31:22;100289.28;;;-2.79;100.00
13080;BME280;6606;49.154;9.280;2023-03-04T04:34:04;100292.63;;;-2.88;100.00
13080;BME280;6606;49.154;9.280;2023-03-04T04:36:47;100291.75;;;-2.90;100.00
13080;BME280;6606;49.154;9.280;2023-03-04T04:39:29;100287.34;;;-2.94;100.00
13080;BME280;6606;49.154;9.280;2023-03-04T04:42:11;100302.06;;;-2.93;100.00
13080;BME280;6606;49.154;9.280;2023-03-04T04:44:53;100290.84;;;-2.94;100.00
13080;BME280;6606;49.154;9.280;2023-03-04T04:47:36;100295.94;;;-2.98;100.00
13080;BME280;6606;49.154;9.280;2023-03-04T04:50:18;100295.94;;;-2.98;100.00
13080;BME280;6606;49.154;9.280;2023-03-04T04:53:01;100300.22;;;-3.00;100.00
13080;BME280;6606;49.154;9.280;2023-03-04T04:55:43;100305.38;;;-3.03;100.00
13080;BME280;6606;49.154;9.280;2023-03-04T04:58:25;100308.78;;;-3.04;100.00
13080;BME280;6606;49.154;9.280;2023-03-04T05:01:07;100308.88;;;-3.01;100.00
13080;BME280;6606;49.154;9.280;2023-03-04T05:03:49;100303.84;;;-2.89;100.00
13080;BME280;6606;49.154;9.280;2023-03-04T05:06:32;100304.78;;;-2.85;100.00
13080;BME280;6606;49.154;9.280;2023-03-04T05:09:15;100316.28;;;-2.67;100.00
13080;BME280;6606;49.154;9.280;2023-03-04T05:11:58;100319.13;;;-2.47;100.00
13080;BME280;6606;49.154;9.280;2023-03-04T05:14:40;100319.34;;;-2.30;100.00
13080;BME280;6606;49.154;9.280;2023-03-04T05:17:22;100321.28;;;-2.12;100.00
13080;BME280;6606;49.154;9.280;2023-03-04T05:20:04;100311.00;;;-2.03;100.00
13080;BME280;6606;49.154;9.280;2023-03-04T05:22:46;100315.53;;;-1.83;100.00
13080;BME280;6606;49.154;9.280;2023-03-04T05:25:30;100310.41;;;-1.75;100.00
13080;BME280;6606;49.154;9.280;2023-03-04T05:28:12;100308.75;;;-1.67;100.00
13080;BME280;6606;49.154;9.280;2023-03-04T05:30:53;100302.78;;;-1.57;100.00
13080;BME280;6606;49.154;9.280;2023-03-04T05:33:36;100307.22;;;-1.47;100.00
13080;BME280;6606;49.154;9.280;2023-03-04T05:36:17;100299.50;;;-1.36;100.00
13080;BME280;6606;49.154;9.280;2023-03-04T05:38:59;100303.97;;;-1.20;100.00
13080;BME280;6606;49.154;9.280;2023-03-04T05:41:42;100301.38;;;-1.18;100.00
13080;BME280;6606;49.154;9.280;2023-03-04T05:44:24;100308.19;;;-1.37;100.00
13080;BME280;6606;49.154;9.280;2023-03-04T05:47:06;100301.44;;;-1.14;100.00
13080;BME280;6606;49.154;9.280;2023-03-04T05:49:47;100300.72;;;-0.93;100.00
13080;BME280;6606;49.154;9.280;2023-03-04T05:52:29;100308.38;;;-1.11;100.00
13080;BME280;6606;49.154;9.280;2023-03-04T05:55:11;100305.16;;;-0.73;100.00
13080;BME280;6606;49.154;9.280;2023-03-04T05:57:54;100307.84;;;-0.55;100.00
13080;BME280;6606;49.154;9.280;2023-03-04T06:00:36;100303.59;;;-0.42;100.00
13080;BME280;6606;49.154;9.280;2023-03-04T06:03:20;100308.78;;;-0.42;100.00
13080;BME280;6606;49.154;9.280;2023-03-04T06:06:02;100312.28;;;-0.38;100.00
13080;BME280;6606;49.154;9.280;2023-03-04T06:08:44;100314.91;;;-0.32;100.00
13080;BME280;6606;49.154;9.280;2023-03-04T06:11:26;100309.66;;;-0.38;100.00
13080;BME280;6606;49.154;9.280;2023-03-04T06:14:09;100311.38;;;-0.40;100.00
13080;BME280;6606;49.154;9.280;2023-03-04T06:16:51;100320.13;;;-0.28;100.00
13080;BME280;6606;49.154;9.280;2023-03-04T06:19:33;100317.56;;;-0.18;100.00
13080;BME280;6606;49.154;9.280;2023-03-04T06:22:14;100324.50;;;-0.22;100.00
13080;BME280;6606;49.154;9.280;2023-03-04T06:24:56;100328.78;;;-0.33;100.00
13080;BME280;6606;49.154;9.280;2023-03-04T06:27:38;100329.72;;;-0.24;100.00
13080;BME280;6606;49.154;9.280;2023-03-04T06:30:21;100329.75;;;-0.07;100.00
13080;BME280;6606;49.154;9.280;2023-03-04T06:33:03;100330.59;;;-0.14;100.00
13080;BME280;6606;49.154;9.280;2023-03-04T06:35:45;100332.41;;;0.06;100.00
13080;BME280;6606;49.154;9.280;2023-03-04T06:38:27;100336.78;;;0.24;100.00
13080;BME280;6606;49.154;9.280;2023-03-04T06:41:10;100338.56;;;0.28;100.00
13080;BME280;6606;49.154;9.280;2023-03-04T06:43:52;100339.44;;;0.36;100.00
13080;BME280;6606;49.154;9.280;2023-03-04T06:46:35;100347.25;;;0.42;100.00
13080;BME280;6606;49.154;9.280;2023-03-04T06:49:17;100345.53;;;0.38;100.00
13080;BME280;6606;49.154;9.280;2023-03-04T06:51:59;100346.41;;;0.38;100.00
13080;BME280;6606;49.154;9.280;2023-03-04T06:54:41;100347.28;;;0.50;100.00
13080;BME280;6606;49.154;9.280;2023-03-04T06:57:25;100347.31;;;0.56;100.00
13080;BME280;6606;49.154;9.280;2023-03-04T07:00:08;100347.28;;;0.63;100.00
13080;BME280;6606;49.154;9.280;2023-03-04T07:02:51;100357.72;;;0.71;100.00
13080;BME280;6606;49.154;9.280;2023-03-04T07:05:33;100359.47;;;0.60;100.00
13080;BME280;6606;49.154;9.280;2023-03-04T07:08:15;100354.28;;;0.72;100.00
13080;BME280;6606;49.154;9.280;2023-03-04T07:10:57;100362.09;;;0.72;100.00
13080;BME280;6606;49.154;9.280;2023-03-04T07:13:38;100363.84;;;0.88;100.00
13080;BME280;6606;49.154;9.280;2023-03-04T07:16:22;100362.13;;;1.06;100.00
13080;BME280;6606;49.154;9.280;2023-03-04T07:19:05;100358.63;;;1.10;100.00
13080;BME280;6606;49.154;9.280;2023-03-04T07:21:47;100362.09;;;1.23;100.00
13080;BME280;6606;49.154;9.280;2023-03-04T07:24:28;100364.69;;;1.23;100.00
13080;BME280;6606;49.154;9.280;2023-03-04T07:27:13;100363.81;;;1.38;100.00
13080;BME280;6606;49.154;9.280;2023-03-04T07:29:54;100374.22;;;1.54;100.00
13080;BME280;6606;49.154;9.280;2023-03-04T07:32:36;100369.81;;;1.72;100.00
13080;BME280;6606;49.154;9.280;2023-03-04T07:35:19;100363.72;;;1.81;100.00
13080;BME280;6606;49.154;9.280;2023-03-04T07:38:01;100372.41;;;1.78;100.00
13080;BME280;6606;49.154;9.280;2023-03-04T07:40:43;100373.34;;;1.62;100.00
13080;BME280;6606;49.154;9.280;2023-03-04T07:43:25;100376.81;;;1.67;100.00
13080;BME280;6606;49.154;9.280;2023-03-04T07:46:06;100375.94;;;1.72;100.00
13080;BME280;6606;49.154;9.280;2023-03-04T07:48:48;100382.81;;;1.92;100.00
13080;BME280;6606;49.154;9.280;2023-03-04T07:51:31;100381.09;;;1.88;100.00
13080;BME280;6606;49.154;9.280;2023-03-04T07:54:14;100381.91;;;2.05;100.00
13080;BME280;6606;49.154;9.280;2023-03-04T07:56:56;100381.97;;;1.88;100.00
13080;BME280;6606;49.154;9.280;2023-03-04T07:59:37;100381.03;;;2.09;100.00
13080;BME280;6606;49.154;9.280;2023-03-04T08:02:20;100378.31;;;2.28;100.00
13080;BME280;6606;49.154;9.280;2023-03-04T08:05:01;100389.69;;;2.20;100.00
13080;BME280;6606;49.154;9.280;2023-03-04T08:07:45;100387.84;;;2.38;100.00
13080;BME280;6606;49.154;9.280;2023-03-04T08:10:26;100391.38;;;2.31;100.00
13080;BME280;6606;49.154;9.280;2023-03-04T08:13:08;100391.38;;;2.34;100.00
13080;BME280;6606;49.154;9.280;2023-03-04T08:15:50;100392.28;;;2.25;100.00
13080;BME280;6606;49.154;9.280;2023-03-04T08:18:32;100401.97;;;1.97;100.00
13080;BME280;6606;49.154;9.280;2023-03-04T08:21:15;100395.88;;;2.00;100.00
13080;BME280;6606;49.154;9.280;2023-03-04T08:24:00;100399.31;;;2.06;100.00
13080;BME280;6606;49.154;9.280;2023-03-04T08:26:48;100388.03;;;1.96;100.00
13080;BME280;6606;49.154;9.280;2023-03-04T08:29:30;100389.78;;;1.90;100.00
13080;BME280;6606;49.154;9.280;2023-03-04T08:32:12;100393.19;;;2.18;100.00
13080;BME280;6606;49.154;9.280;2023-03-04T08:34:54;100394.00;;;2.26;100.00
13080;BME280;6606;49.154;9.280;2023-03-04T08:37:36;100388.56;;;2.68;100.00
13080;BME280;6606;49.154;9.280;2023-03-04T08:40:19;100391.88;;;2.90;100.00
13080;BME280;6606;49.154;9.280;2023-03-04T08:43:01;100396.19;;;2.98;100.00
13080;BME280;6606;49.154;9.280;2023-03-04T08:45:43;100389.03;;;3.19;100.00
13080;BME280;6606;49.154;9.280;2023-03-04T08:48:24;100393.44;;;3.12;100.00
13080;BME280;6606;49.154;9.280;2023-03-04T08:51:07;100392.38;;;3.36;100.00
13080;BME280;6606;49.154;9.280;2023-03-04T08:53:50;100400.19;;;3.42;100.00
13080;BME280;6606;49.154;9.280;2023-03-04T08:56:33;100394.19;;;3.28;100.00
13080;BME280;6606;49.154;9.280;2023-03-04T08:59:15;100392.44;;;3.27;100.00
13080;BME280;6606;49.154;9.280;2023-03-04T09:01:56;100397.50;;;3.50;100.00
13080;BME280;6606;49.154;9.280;2023-03-04T09:04:38;100389.59;;;3.51;100.00
13080;BME280;6606;49.154;9.280;2023-03-04T09:07:20;100386.03;;;3.57;100.00
13080;BME280;6606;49.154;9.280;2023-03-04T09:10:02;100395.38;;;3.84;100.00
13080;BME280;6606;49.154;9.280;2023-03-04T09:12:47;100388.50;;;3.74;100.00
13080;BME280;6606;49.154;9.280;2023-03-04T09:15:29;100380.00;;;3.50;100.00
13080;BME280;6606;49.154;9.280;2023-03-04T09:18:11;100379.63;;;3.87;100.00
13080;BME280;6606;49.154;9.280;2023-03-04T09:20:54;100386.22;;;4.19;100.00
13080;BME280;6606;49.154;9.280;2023-03-04T09:23:36;100385.94;;;4.40;100.00
13080;BME280;6606;49.154;9.280;2023-03-04T09:26:20;100377.75;;;4.63;100.00
13080;BME280;6606;49.154;9.280;2023-03-04T09:29:04;100385.38;;;4.80;100.00
13080;BME280;6606;49.154;9.280;2023-03-04T09:31:49;100384.59;;;4.74;100.00
13080;BME280;6606;49.154;9.280;2023-03-04T09:34:30;100386.34;;;4.73;100.00
13080;BME280;6606;49.154;9.280;2023-03-04T09:37:12;100376.69;;;4.75;100.00
13080;BME280;6606;49.154;9.280;2023-03-04T09:39:54;100378.97;;;4.97;100.00
13080;BME280;6606;49.154;9.280;2023-03-04T09:42:42;100383.84;;;5.21;100.00
13080;BME280;6606;49.154;9.280;2023-03-04T09:45:34;100387.41;;;5.16;100.00
13080;BME280;6606;49.154;9.280;2023-03-04T09:48:20;100389.25;;;5.11;100.00
13080;BME280;6606;49.154;9.280;2023-03-04T09:51:11;100393.47;;;5.22;100.00
13080;BME280;6606;49.154;9.280;2023-03-04T09:54:05;100391.63;;;5.27;100.00
13080;BME280;6606;49.154;9.280;2023-03-04T09:56:50;100395.03;;;5.33;100.00
13080;BME280;6606;49.154;9.280;2023-03-04T09:59:39;100395.47;;;5.05;100.00
13080;BME280;6606;49.154;9.280;2023-03-04T10:02:30;100400.94;;;4.93;100.00
13080;BME280;6606;49.154;9.280;2023-03-04T10:05:19;100404.66;;;4.79;100.00
13080;BME280;6606;49.154;9.280;2023-03-04T10:08:11;100406.47;;;4.74;100.00
13080;BME280;6606;49.154;9.280;2023-03-04T10:10:59;100400.91;;;4.96;100.00
13080;BME280;6606;49.154;9.280;2023-03-04T10:13:52;100405.63;;;4.74;100.00
13080;BME280;6606;49.154;9.280;2023-03-04T10:16:39;100406.78;;;4.50;100.00
13080;BME280;6606;49.154;9.280;2023-03-04T10:19:33;100400.38;;;4.72;100.00
13080;BME280;6606;49.154;9.280;2023-03-04T10:22:24;100393.56;;;4.60;100.00
13080;BME280;6606;49.154;9.280;2023-03-04T10:25:16;100401.56;;;4.50;100.00
13080;BME280;6606;49.154;9.280;2023-03-04T10:28:02;100394.47;;;4.56;100.00
13080;BME280;6606;49.154;9.280;2023-03-04T10:30:50;100394.53;;;4.52;100.00
13080;BME280;6606;49.154;9.280;2023-03-04T10:33:34;100398.50;;;4.80;100.00
13080;BME280;6606;49.154;9.280;2023-03-04T10:36:33;100386.81;;;5.00;100.00
13080;BME280;6606;49.154;9.280;2023-03-04T10:39:20;100387.03;;;4.88;100.00
13080;BME280;6606;49.154;9.280;2023-03-04T10:42:04;100391.53;;;4.79;100.00
13080;BME280;6606;49.154;9.280;2023-03-04T10:44:52;100388.53;;;4.44;100.00
13080;BME280;6606;49.154;9.280;2023-03-04T10:47:34;100387.34;;;4.66;100.00
13080;BME280;6606;49.154;9.280;2023-03-04T10:50:21;100381.44;;;4.49;100.00
13080;BME280;6606;49.154;9.280;2023-03-04T10:53:05;100390.34;;;4.38;100.00
13080;BME280;6606;49.154;9.280;2023-03-04T10:56:03;100381.75;;;4.88;100.00
13080;BME280;6606;49.154;9.280;2023-03-04T11:02:24;100376.97;;;4.57;100.00
13080;BME280;6606;49.154;9.280;2023-03-04T11:05:17;100380.16;;;4.77;100.00
13080;BME280;6606;49.154;9.280;2023-03-04T11:07:59;100375.66;;;4.85;100.00
13080;BME280;6606;49.154;9.280;2023-03-04T11:10:42;100372.88;;;4.95;100.00
13080;BME280;6606;49.154;9.280;2023-03-04T11:13:25;100375.66;;;4.87;100.00
13080;BME280;6606;49.154;9.280;2023-03-04T11:16:23;100375.84;;;4.73;100.00
13080;BME280;6606;49.154;9.280;2023-03-04T11:19:10;100371.53;;;4.69;100.00
13080;BME280;6606;49.154;9.280;2023-03-04T11:21:56;100367.09;;;4.73;100.00
13080;BME280;6606;49.154;9.280;2023-03-04T11:24:39;100362.81;;;4.69;100.00
13080;BME280;6606;49.154;9.280;2023-03-04T11:27:33;100364.50;;;4.71;100.00
13080;BME280;6606;49.154;9.280;2023-03-04T11:30:28;100347.78;;;4.77;100.00
13080;BME280;6606;49.154;9.280;2023-03-04T11:33:21;100353.84;;;4.80;100.00
13080;BME280;6606;49.154;9.280;2023-03-04T11:36:15;100363.59;;;4.74;100.00
13080;BME280;6606;49.154;9.280;2023-03-04T11:39:01;100348.28;;;4.43;100.00
13080;BME280;6606;49.154;9.280;2023-03-04T11:41:49;100350.22;;;4.32;100.00
13080;BME280;6606;49.154;9.280;2023-03-04T11:44:33;100349.03;;;4.53;100.00
13080;BME280;6606;49.154;9.280;2023-03-04T11:50:30;100343.09;;;4.96;100.00
13080;BME280;6606;49.154;9.280;2023-03-04T11:53:32;100342.72;;;4.65;100.00
13080;BME280;6606;49.154;9.280;2023-03-04T11:56:25;100328.56;;;4.75;100.00
13080;BME280;6606;49.154;9.280;2023-03-04T11:59:25;100330.16;;;4.83;100.00
13080;BME280;6606;49.154;9.280;2023-03-04T12:02:16;100325.75;;;4.85;100.00
13080;BME280;6606;49.154;9.280;2023-03-04T12:05:19;100326.16;;;4.61;100.00
13080;BME280;6606;49.154;9.280;2023-03-04T12:08:17;100326.44;;;4.98;100.00
13080;BME280;6606;49.154;9.280;2023-03-04T12:11:05;100313.00;;;5.15;100.00
13080;BME280;6606;49.154;9.280;2023-03-04T12:14:10;100307.91;;;5.04;100.00
13080;BME280;6606;49.154;9.280;2023-03-04T12:17:19;100305.03;;;5.20;100.00
13080;BME280;6606;49.154;9.280;2023-03-04T12:20:17;100306.53;;;4.83;100.00
13080;BME280;6606;49.154;9.280;2023-03-04T12:23:11;100305.22;;;5.09;100.00
13080;BME280;6606;49.154;9.280;2023-03-04T12:25:59;100301.94;;;4.98;100.00
13080;BME280;6606;49.154;9.280;2023-03-04T12:28:52;100303.78;;;5.41;100.00
13080;BME280;6606;49.154;9.280;2023-03-04T12:31:38;100298.56;;;5.38;100.00
13080;BME280;6606;49.154;9.280;2023-03-04T12:34:39;100294.84;;;5.03;100.00
13080;BME280;6606;49.154;9.280;2023-03-04T12:37:56;100295.63;;;5.08;100.00
13080;BME280;6606;49.154;9.280;2023-03-04T12:40:48;100286.28;;;4.90;100.00
13080;BME280;6606;49.154;9.280;2023-03-04T12:43:40;100286.56;;;5.23;100.00
13080;BME280;6606;49.154;9.280;2023-03-04T12:46:30;100272.50;;;5.25;100.00
13080;BME280;6606;49.154;9.280;2023-03-04T12:49:32;100279.34;;;5.36;100.00
13080;BME280;6606;49.154;9.280;2023-03-04T12:52:25;100274.13;;;5.33;100.00
13080;BME280;6606;49.154;9.280;2023-03-04T12:55:13;100269.41;;;5.50;100.00
13080;BME280;6606;49.154;9.280;2023-03-04T12:57:56;100273.78;;;5.51;100.00
13080;BME280;6606;49.154;9.280;2023-03-04T13:00:46;100273.47;;;5.66;100.00
13080;BME280;6606;49.154;9.280;2023-03-04T13:03:40;100264.53;;;5.73;100.00
13080;BME280;6606;49.154;9.280;2023-03-04T13:06:30;100265.34;;;5.35;100.00
13080;BME280;6606;49.154;9.280;2023-03-04T13:09:22;100264.16;;;5.03;100.00
13080;BME280;6606;49.154;9.280;2023-03-04T13:12:14;100263.91;;;5.17;100.00
13080;BME280;6606;49.154;9.280;2023-03-04T13:15:17;100267.44;;;5.16;100.00
13080;BME280;6606;49.154;9.280;2023-03-04T13:18:01;100263.84;;;5.20;100.00
13080;BME280;6606;49.154;9.280;2023-03-04T13:20:44;100267.59;;;5.07;100.00
13080;BME280;6606;49.154;9.280;2023-03-04T13:23:28;100264.56;;;5.28;100.00
13080;BME280;6606;49.154;9.280;2023-03-04T13:26:22;100268.81;;;5.37;100.00
13080;BME280;6606;49.154;9.280;2023-03-04T13:32:10;100271.81;;;5.16;100.00
13080;BME280;6606;49.154;9.280;2023-03-04T13:34:52;100261.22;;;5.20;100.00
13080;BME280;6606;49.154;9.280;2023-03-04T13:37:35;100261.22;;;5.22;100.00
13080;BME280;6606;49.154;9.280;2023-03-04T13:40:38;100264.97;;;5.09;100.00
13080;BME280;6606;49.154;9.280;2023-03-04T13:43:26;100259.06;;;4.96;100.00
13080;BME280;6606;49.154;9.280;2023-03-04T13:46:37;100262.34;;;5.07;100.00
13080;BME280;6606;49.154;9.280;2023-03-04T13:49:24;100258.28;;;4.89;100.00
13080;BME280;6606;49.154;9.280;2023-03-04T13:52:32;100254.59;;;4.99;100.00
13080;BME280;6606;49.154;9.280;2023-03-04T13:55:36;100252.16;;;4.89;100.00
13080;BME280;6606;49.154;9.280;2023-03-04T13:58:22;100253.25;;;4.77;100.00
13080;BME280;6606;49.154;9.280;2023-03-04T14:01:22;100260.84;;;4.94;100.00
13080;BME280;6606;49.154;9.280;2023-03-04T14:04:11;100255.38;;;5.06;100.00
13080;BME280;6606;49.154;9.280;2023-03-04T14:07:02;100249.94;;;5.15;100.00
13080;BME280;6606;49.154;9.280;2023-03-04T14:09:55;100246.47;;;5.13;100.00
13080;BME280;6606;49.154;9.280;2023-03-04T14:12:40;100244.50;;;5.24;100.00
13080;BME280;6606;49.154;9.280;2023-03-04T14:15:26;100233.88;;;5.31;100.00
13080;BME280;6606;49.154;9.280;2023-03-04T14:18:12;100236.00;;;5.10;100.00
13080;BME280;6606;49.154;9.280;2023-03-04T14:20:55;100240.03;;;5.29;100.00
13080;BME280;6606;49.154;9.280;2023-03-04T14:23:39;100224.13;;;5.36;100.00
13080;BME280;6606;49.154;9.280;2023-03-04T14:26:21;100219.34;;;5.56;100.00
13080;BME280;6606;49.154;9.280;2023-03-04T14:29:19;100219.09;;;5.23;100.00
13080;BME280;6606;49.154;9.280;2023-03-04T14:32:03;100220.44;;;5.46;100.00
13080;BME280;6606;49.154;9.280;2023-03-04T14:34:48;100215.28;;;5.40;100.00
13080;BME280;6606;49.154;9.280;2023-03-04T14:37:37;100209.97;;;5.43;100.00
13080;BME280;6606;49.154;9.280;2023-03-04T14:40:25;100207.28;;;5.46;100.00